Terminal Aerodrome Forecast
Issued by NWS

Current Version | Previous Version | Graphics & Text | Print | Product List | Glossary On
Versions: 1 2 3 4 5 6 7 8 9 10 11 12 13 14 15 16
489
FTUS41 KPBZ 241135
TAFMGW
TAF
KMGW 241135Z 2412/2512 21003KT P6SM SCT090
     FM241700 27007KT P6SM SKC=

USA.gov is the U.S. government's official web portal to all federal, state and local government web resources and services.